Data for 10/09/2006

Time Sea-Level Adjusted Pressure Absolute Pressure Temperature Relative Humidity Dew Point   
(mb) (inHg) (mb) (inHg) (C) (F) (%) (C) (F)
00:05 1025 30.27 854 25.22 2.1 35.8 87 0.1 32.2
00:10 1025 30.27 854 25.22 2 35.6 87 0.1 32.1
00:15 1025 30.27 854 25.22 1.8 35.2 88 0.1 32.1
00:20 1025 30.27 854 25.22 1.7 35 89 -0 32
00:25 1025 30.27 854 25.22 1.5 34.7 90 0 32
00:30 1025 30.27 855 25.25 1.4 34.5 91 0.1 32.2
00:35 1025 30.27 854 25.22 1.2 34.1 91 -0.2 31.7
00:40 1025 30.27 854 25.22 1.2 34.2 89 -0.3 31.4
00:45 1025 30.27 854 25.22 1.3 34.3 88 -0.4 31.2
00:50 1025 30.27 854 25.22 1.3 34.3 88 -0.5 31.1
00:55 1025 30.27 854 25.22 1.3 34.3 87 -0.6 30.9
01:00 1025 30.27 854 25.22 1.2 34.2 87 -0.7 30.7
01:05 1025 30.27 854 25.22 1.2 34.2 86 -0.8 30.5
01:10 1025 30.27 854 25.22 1.2 34.2 84 -1.1 29.9
01:15 1025 30.27 854 25.22 1.2 34.2 85 -1.1 30
01:20 1025 30.27 854 25.22 1.2 34.2 85 -1.1 30.1
01:25 1025 30.27 854 25.22 1.2 34.2 83 -1.3 29.7
01:30 1025 30.27 855 25.25 1.3 34.3 84 -1.1 30
01:35 1025 30.27 855 25.25 1.3 34.3 84 -1.2 29.9
01:40 1026 30.3 855 25.25 1.3 34.3 83 -1.3 29.7
01:45 1026 30.3 855 25.25 1.4 34.5 83 -1.2 29.9
01:50 1026 30.3 855 25.25 1.4 34.4 82 -1.4 29.4
01:55 1025 30.27 855 25.25 1.4 34.5 81 -1.5 29.3
02:00 1026 30.3 855 25.25 1.4 34.5 80 -1.6 29.1
02:05 1026 30.3 855 25.25 1.4 34.6 79 -1.8 28.8
02:10 1026 30.3 855 25.25 1.4 34.6 78 -1.9 28.5
02:15 1026 30.3 855 25.25 1.5 34.7 78 -2 28.5
02:20 1026 30.3 855 25.25 1.5 34.6 78 -2 28.3
02:25 1026 30.3 855 25.25 1.4 34.6 79 -1.9 28.6
02:30 1026 30.3 855 25.25 1.4 34.6 77 -2.1 28.2
02:35 1026 30.3 855 25.25 1.4 34.5 79 -1.9 28.6
02:40 1026 30.3 855 25.25 1.3 34.4 78 -2 28.3
02:45 1026 30.3 855 25.25 1.3 34.3 78 -2.2 28.1
02:50 1026 30.3 855 25.25 1.3 34.3 79 -2 28.4
02:55 1026 30.3 855 25.25 1.2 34.2 79 -2 28.4
03:00 1026 30.3 855 25.25 1.3 34.3 79 -2 28.4
03:05 1026 30.3 855 25.25 1.3 34.3 78 -2.2 28
03:10 1026 30.3 855 25.25 1.4 34.5 78 -2.1 28.2
03:15 1026 30.3 855 25.25 1.4 34.5 76 -2.3 27.8
03:20 1026 30.3 855 25.25 1.4 34.5 77 -2.2 28.1
03:25 1026 30.3 855 25.25 1.4 34.6 76 -2.3 27.8
03:30 1026 30.3 855 25.25 1.5 34.6 77 -2.2 28.1
03:35 1026 30.3 855 25.25 1.4 34.5 77 -2.3 27.9
03:40 1026 30.3 855 25.25 1.4 34.6 76 -2.3 27.8
03:45 1026 30.3 855 25.25 1.6 34.8 75 -2.4 27.7
03:50 1026 30.3 855 25.25 1.5 34.7 76 -2.4 27.8
03:55 1026 30.3 855 25.25 1.5 34.8 75 -2.4 27.6
04:00 1026 30.3 855 25.25 1.6 34.9 76 -2.2 28.1
04:05 1026 30.3 855 25.25 1.4 34.6 77 -2.2 28.1
04:10 1026 30.3 855 25.25 1.4 34.5 78 -2 28.5
04:15 1026 30.3 855 25.25 1.2 34.2 81 -1.8 28.8
04:20 1026 30.3 855 25.25 1.2 34.1 82 -1.6 29.1
04:25 1026 30.3 855 25.25 1 33.8 84 -1.4 29.4
04:30 1026 30.3 855 25.25 0.8 33.5 85 -1.4 29.4
04:35 1026 30.3 855 25.25 0.8 33.5 84 -1.6 29.2
04:40 1026 30.3 856 25.28 0.9 33.6 84 -1.6 29.2
04:45 1026 30.3 856 25.28 0.9 33.6 84 -1.5 29.4
04:50 1026 30.3 856 25.28 0.9 33.6 83 -1.7 28.9
04:55 1026 30.3 856 25.28 1 33.8 82 -1.7 28.9
05:00 1026 30.3 856 25.28 1 33.8 83 -1.5 29.2
05:05 1026 30.3 856 25.28 1 33.7 83 -1.6 29.2
05:10 1027 30.33 856 25.28 0.8 33.5 84 -1.5 29.2
05:15 1027 30.33 856 25.28 0.8 33.4 86 -1.3 29.7
05:20 1027 30.33 856 25.28 0.6 33.1 87 -1.3 29.7
05:25 1027 30.33 856 25.28 0.7 33.3 87 -1.3 29.7
05:30 1027 30.33 856 25.28 0.7 33.2 87 -1.2 29.8
05:35 1027 30.33 856 25.28 0.7 33.2 86 -1.4 29.5
05:40 1027 30.33 856 25.28 0.7 33.3 84 -1.6 29.1
05:45 1027 30.33 856 25.28 0.9 33.6 82 -1.8 28.7
05:50 1027 30.33 856 25.28 1 33.7 82 -1.9 28.7
05:55 1027 30.33 856 25.28 0.9 33.6 83 -1.6 29.1
06:00 1027 30.33 856 25.28 0.8 33.4 84 -1.7 29
06:05 1027 30.33 856 25.28 0.8 33.4 82 -1.9 28.6
06:10 1027 30.33 856 25.28 0.9 33.6 81 -2 28.4
06:15 1027 30.33 856 25.28 0.9 33.6 80 -2.3 27.9
06:20 1027 30.33 856 25.28 1 33.8 79 -2.3 27.8
06:25 1027 30.33 856 25.28 1 33.8 77 -2.5 27.4
06:30 1027 30.33 856 25.28 1 33.7 79 -2.3 27.9
06:35 1027 30.33 856 25.28 0.9 33.5 78 -2.6 27.4
06:40 1027 30.33 856 25.28 0.9 33.6 79 -2.4 27.6
06:45 1027 30.33 856 25.28 0.7 33.3 81 -2.1 28.2
06:50 1027 30.33 856 25.28 0.5 32.9 82 -2.2 28
06:55 1027 30.33 856 25.28 0.5 32.8 82 -2.2 28
07:00 1027 30.33 856 25.28 0.5 32.9 82 -2.3 27.9
07:05 1027 30.33 856 25.28 0.5 32.9 82 -2.2 28
07:10 1027 30.33 856 25.28 0.5 32.9 82 -2.2 28.1
07:15 1027 30.33 856 25.28 0.5 32.8 83 -2.2 28.1
07:20 1027 30.33 856 25.28 0.4 32.8 83 -2.1 28.2
07:25 1027 30.33 856 25.28 0.4 32.8 83 -2.2 28.1
07:30 1027 30.33 856 25.28 0.5 32.9 82 -2.2 28
07:35 1027 30.33 856 25.28 0.5 32.9 82 -2.3 27.9
07:40 1027 30.33 856 25.28 0.6 33.1 80 -2.5 27.6
07:45 1027 30.33 856 25.28 0.8 33.4 80 -2.3 27.9
07:50 1027 30.33 856 25.28 0.8 33.4 80 -2.3 27.8
07:55 1027 30.33 856 25.28 0.8 33.5 78 -2.6 27.3
08:00 1027 30.33 856 25.28 0.9 33.6 77 -2.6 27.3
08:05 1027 30.33 856 25.28 1 33.7 77 -2.6 27.2
08:10 1027 30.33 857 25.31 1 33.8 77 -2.5 27.5
08:15 1027 30.33 856 25.28 0.9 33.7 76 -2.9 26.8
08:20 1027 30.33 857 25.31 1 33.9 75 -2.8 26.9
08:25 1027 30.33 857 25.31 1.1 34 74 -3.1 26.4
08:30 1027 30.33 857 25.31 1.1 34.1 74 -2.9 26.7
08:35 1027 30.33 857 25.31 1.1 34 74 -3 26.6
08:40 1027 30.33 857 25.31 1.1 34.1 76 -2.7 27.2
08:45 1027 30.33 857 25.31 1 33.9 75 -2.9 26.9
08:50 1027 30.33 857 25.31 1.1 34 74 -3 26.6
08:55 1027 30.33 857 25.31 1.1 34 75 -2.9 26.9
09:00 1027 30.33 857 25.31 1.1 33.9 75 -2.9 26.7
09:05 1027 30.33 856 25.28 1.1 33.9 74 -3 26.6
09:10 1027 30.33 857 25.31 1 33.8 74 -3.1 26.5
09:15 1027 30.33 857 25.31 1 33.8 74 -3.1 26.5
09:20 1027 30.33 857 25.31 1 33.8 75 -2.9 26.7
09:25 1027 30.33 857 25.31 1 33.7 75 -3 26.6
09:30 1027 30.33 857 25.31 0.9 33.6 75 -3 26.7
09:35 1027 30.33 857 25.31 0.9 33.6 76 -2.9 26.9
09:40 1028 30.36 857 25.31 0.7 33.3 75 -3.2 26.2
09:45 1028 30.36 857 25.31 0.8 33.4 77 -2.9 26.9
09:50 1028 30.36 857 25.31 0.8 33.4 75 -3.2 26.3
09:55 1028 30.36 857 25.31 0.8 33.4 76 -3.1 26.5
10:00 1028 30.36 857 25.31 0.8 33.4 76 -3 26.6
10:05 1027 30.33 857 25.31 0.7 33.3 74 -3.4 25.9
10:10 1027 30.33 857 25.31 0.7 33.2 74 -3.5 25.7
10:15 1027 30.33 857 25.31 0.8 33.4 74 -3.3 26
10:20 1028 30.36 857 25.31 0.8 33.5 74 -3.3 26.1
10:25 1028 30.36 857 25.31 0.8 33.4 73 -3.4 25.8
10:30 1028 30.36 857 25.31 0.9 33.6 73 -3.4 25.9
10:35 1027 30.33 857 25.31 0.9 33.6 73 -3.3 26
10:40 1028 30.36 857 25.31 0.9 33.5 73 -3.4 25.9
10:45 1028 30.36 857 25.31 0.8 33.4 73 -3.6 25.5
10:50 1028 30.36 857 25.31 0.8 33.5 71 -3.8 25.1
10:55 1028 30.36 857 25.31 0.8 33.5 72 -3.7 25.3
11:00 1028 30.36 857 25.31 0.9 33.6 71 -3.7 25.3
11:05 1028 30.36 857 25.31 0.9 33.6 72 -3.7 25.3
11:10 1028 30.36 857 25.31 0.8 33.4 73 -3.5 25.6
11:15 1028 30.36 857 25.31 0.8 33.4 73 -3.6 25.5
11:20 1028 30.36 857 25.31 0.7 33.3 73 -3.6 25.5
11:25 1028 30.36 857 25.31 0.7 33.3 72 -3.8 25.2
11:30 1028 30.36 857 25.31 0.7 33.3 72 -3.8 25.2
11:35 1028 30.36 857 25.31 0.7 33.2 72 -3.8 25.1
11:40 1028 30.36 857 25.31 0.8 33.4 72 -3.7 25.3
11:45 1028 30.36 857 25.31 0.7 33.3 72 -3.8 25.2
11:50 1028 30.36 857 25.31 0.8 33.4 71 -3.8 25.1
11:55 1028 30.36 857 25.31 0.9 33.5 71 -3.8 25.1
12:00 1028 30.36 857 25.31 0.9 33.6 71 -3.7 25.3
12:05 1028 30.36 857 25.31 1.1 33.9 71 -3.7 25.3
12:10 1028 30.36 857 25.31 1 33.9 71 -3.7 25.4
12:15 1028 30.36 857 25.31 1 33.8 70 -3.9 24.9
12:20 1028 30.36 857 25.31 1 33.7 70 -3.9 25
12:25 1028 30.36 857 25.31 1.1 33.9 70 -3.8 25.2
12:30 1028 30.36 857 25.31 1 33.9 69 -4 24.9
12:35 1028 30.36 857 25.31 1.2 34.1 69 -3.8 25.1
12:40 1028 30.36 857 25.31 1.1 34 70 -3.7 25.3
12:45 1028 30.36 857 25.31 1.2 34.1 70 -3.7 25.4
12:50 1027 30.33 857 25.31 1.2 34.2 69 -3.8 25.2
12:55 1027 30.33 857 25.31 1.3 34.4 69 -3.8 25.2
13:00 1027 30.33 857 25.31 1.4 34.6 68 -3.8 25.2
13:05 1027 30.33 857 25.31 1.6 34.8 68 -3.7 25.4
13:10 1027 30.33 857 25.31 1.6 34.9 67 -3.8 25.2
13:15 1027 30.33 856 25.28 1.4 34.5 68 -3.8 25.1
13:20 1027 30.33 856 25.28 1.5 34.8 67 -4 24.8
13:25 1027 30.33 856 25.28 1.7 35 65 -4.1 24.6
13:30 1027 30.33 856 25.28 2.3 36.1 62 -4.2 24.5
13:35 1027 30.33 856 25.28 2.3 36.2 62 -4.1 24.5
13:40 1027 30.33 856 25.28 2.4 36.4 62 -4.1 24.7
13:45 1027 30.33 856 25.28 2.6 36.7 62 -4 24.8
13:50 1027 30.33 856 25.28 2.7 36.9 63 -3.7 25.3
13:55 1027 30.33 856 25.28 2.9 37.2 61 -3.8 25.1
14:00 1027 30.33 856 25.28 2.6 36.7 63 -3.8 25.2
14:05 1027 30.33 856 25.28 2.7 36.8 61 -4 24.8
14:10 1027 30.33 856 25.28 2.6 36.7 62 -4 24.8
14:15 1027 30.33 856 25.28 2.8 37 60 -4.2 24.4
14:20 1027 30.33 856 25.28 2.8 37.1 60 -4.2 24.5
14:25 1027 30.33 856 25.28 2.7 36.8 63 -3.7 25.4
14:30 1027 30.33 856 25.28 2.8 37.1 61 -3.9 24.9
14:35 1027 30.33 856 25.28 2.6 36.6 62 -4 24.8
14:40 1027 30.33 856 25.28 2.2 35.9 64 -3.9 25
14:45 1027 30.33 856 25.28 2 35.6 65 -3.8 25.1
14:50 1027 30.33 856 25.28 2.5 36.4 64 -3.7 25.3
14:55 1026 30.3 856 25.28 2.5 36.4 64 -3.7 25.3
15:00 1026 30.3 855 25.25 2.5 36.4 64 -3.6 25.5
15:05 1026 30.3 856 25.28 2.4 36.3 65 -3.5 25.7
15:10 1026 30.3 856 25.28 2.4 36.3 65 -3.5 25.7
15:15 1026 30.3 856 25.28 2.4 36.3 65 -3.4 25.8
15:20 1026 30.3 856 25.28 2.3 36.2 65 -3.6 25.4
15:25 1026 30.3 856 25.28 2.3 36.2 65 -3.6 25.5
15:30 1026 30.3 855 25.25 2.4 36.4 63 -3.8 25.1
15:35 1026 30.3 855 25.25 2.6 36.6 63 -3.8 25.1
15:40 1026 30.3 855 25.25 2.4 36.3 64 -3.8 25.1
15:45 1026 30.3 855 25.25 2.4 36.2 64 -3.8 25.2
15:50 1026 30.3 855 25.25 2.3 36.2 63 -3.9 25
15:55 1026 30.3 855 25.25 2.1 35.8 64 -3.9 25
16:00 1026 30.3 855 25.25 2 35.7 64 -4 24.8
16:05 1026 30.3 855 25.25 2.3 36.1 67 -3.1 26.3
16:10 1026 30.3 855 25.25 2.1 35.8 69 -3.1 26.5
16:15 1026 30.3 855 25.25 2 35.6 68 -3.2 26.2
16:20 1026 30.3 855 25.25 2 35.5 66 -3.7 25.4
16:25 1026 30.3 855 25.25 2 35.7 64 -4.1 24.6
16:30 1026 30.3 855 25.25 2.2 36 65 -3.6 25.5
16:35 1026 30.3 855 25.25 2.1 35.9 66 -3.5 25.6
16:40 1026 30.3 855 25.25 2.3 36.2 65 -3.5 25.6
16:45 1026 30.3 855 25.25 2.3 36.2 66 -3.3 26.1
16:50 1026 30.3 855 25.25 2.3 36.1 66 -3.4 26
16:55 1026 30.3 855 25.25 2.2 36 65 -3.7 25.4
17:00 1026 30.3 855 25.25 2.1 35.8 66 -3.6 25.6
17:05 1026 30.3 855 25.25 2 35.6 66 -3.8 25.2
17:10 1026 30.3 855 25.25 1.9 35.4 66 -3.7 25.3
17:15 1026 30.3 855 25.25 1.8 35.2 67 -3.7 25.3
17:20 1026 30.3 855 25.25 1.7 35.1 67 -3.7 25.3
17:25 1026 30.3 855 25.25 1.5 34.7 69 -3.5 25.6
17:30 1026 30.3 855 25.25 1.4 34.6 70 -3.5 25.7
17:35 1026 30.3 855 25.25 1.4 34.5 70 -3.5 25.7
17:40 1026 30.3 855 25.25 1.3 34.4 70 -3.5 25.6
17:45 1026 30.3 855 25.25 1.3 34.3 70 -3.6 25.4
17:50 1026 30.3 855 25.25 1.2 34.2 71 -3.5 25.7
17:55 1026 30.3 855 25.25 1.3 34.3 71 -3.4 25.9
18:00 1026 30.3 855 25.25 1.3 34.3 70 -3.5 25.7
18:05 1026 30.3 855 25.25 1.2 34.2 72 -3.3 26
18:10 1026 30.3 855 25.25 1.1 34.1 72 -3.3 26
18:15 1026 30.3 855 25.25 1.1 34 71 -3.6 25.6
18:20 1026 30.3 855 25.25 1.2 34.1 71 -3.6 25.5
18:25 1026 30.3 855 25.25 1.1 34 71 -3.6 25.5
18:30 1026 30.3 855 25.25 1 33.9 70 -3.8 25.1
18:35 1025 30.27 855 25.25 1 33.7 71 -3.8 25.2
18:40 1025 30.27 855 25.25 0.8 33.5 73 -3.5 25.7
18:45 1025 30.27 855 25.25 0.8 33.4 73 -3.5 25.6
18:50 1025 30.27 855 25.25 0.7 33.3 74 -3.4 25.9
18:55 1025 30.27 855 25.25 0.7 33.2 75 -3.3 26.1
19:00 1026 30.3 855 25.25 0.5 32.9 75 -3.4 25.9
19:05 1026 30.3 855 25.25 0.5 32.9 76 -3.3 26
19:10 1026 30.3 855 25.25 0.5 32.8 76 -3.2 26.2
19:15 1026 30.3 855 25.25 0.4 32.8 76 -3.3 26
19:20 1026 30.3 855 25.25 0.5 32.8 75 -3.4 25.9
19:25 1026 30.3 855 25.25 0.4 32.8 75 -3.5 25.7
19:30 1026 30.3 855 25.25 0.5 32.9 75 -3.4 25.9
19:35 1026 30.3 855 25.25 0.5 32.8 76 -3.2 26.2
19:40 1026 30.3 855 25.25 0.4 32.7 78 -3.1 26.5
19:45 1026 30.3 855 25.25 0.3 32.6 77 -3.3 26.1
19:50 1026 30.3 855 25.25 0.4 32.7 77 -3.2 26.2
19:55 1026 30.3 855 25.25 0.2 32.4 78 -3.2 26.2
20:00 1026 30.3 855 25.25 0.2 32.3 78 -3.3 26
20:05 1026 30.3 855 25.25 0 32.1 79 -3.2 26.2
20:10 1026 30.3 855 25.25 -0.1 31.9 79 -3.4 26
20:15 1026 30.3 855 25.25 -0.1 31.9 79 -3.3 26.1
20:20 1026 30.3 855 25.25 -0.1 31.8 79 -3.4 25.9
20:25 1026 30.3 855 25.25 -0.1 31.9 79 -3.3 26
20:30 1026 30.3 855 25.25 -0.1 31.8 79 -3.4 25.9
20:35 1026 30.3 855 25.25 -0.1 31.9 79 -3.4 26
20:40 1025 30.27 855 25.25 -0.1 31.8 79 -3.4 25.9
20:45 1025 30.27 855 25.25 -0.2 31.7 79 -3.4 25.8
20:50 1025 30.27 855 25.25 -0.2 31.7 79 -3.3 26
20:55 1025 30.27 855 25.25 -0.2 31.7 79 -3.3 26
21:00 1025 30.27 855 25.25 -0.1 31.8 79 -3.3 26
21:05 1025 30.27 855 25.25 -0.1 31.8 79 -3.3 26.1
21:10 1025 30.27 855 25.25 -0.1 31.8 80 -3.2 26.2
21:15 1025 30.27 855 25.25 -0.2 31.7 80 -3.2 26.2
21:20 1025 30.27 854 25.22 -0.1 31.8 80 -3.1 26.3
21:25 1025 30.27 854 25.22 -0.1 31.9 80 -3.1 26.5
21:30 1025 30.27 854 25.22 -0.1 31.8 81 -3 26.7
21:35 1025 30.27 854 25.22 -0.2 31.6 82 -2.9 26.8
21:40 1025 30.27 854 25.22 -0.2 31.6 83 -2.8 26.9
21:45 1025 30.27 854 25.22 -0.2 31.6 83 -2.8 27
21:50 1025 30.27 854 25.22 -0.3 31.5 83 -2.8 27
21:55 1025 30.27 854 25.22 -0.2 31.6 83 -2.7 27.1
22:00 1025 30.27 854 25.22 -0.2 31.6 83 -2.7 27.2
22:05 1025 30.27 854 25.22 -0.2 31.6 83 -2.7 27.1
22:10 1025 30.27 854 25.22 -0.2 31.7 83 -2.7 27.1
22:15 1025 30.27 854 25.22 -0.1 31.7 83 -2.7 27.1
22:20 1025 30.27 854 25.22 -0.2 31.6 82 -2.9 26.9
22:25 1025 30.27 854 25.22 -0.2 31.7 82 -2.9 26.7
22:30 1025 30.27 854 25.22 -0.2 31.7 81 -3.1 26.4
22:35 1025 30.27 854 25.22 -0.2 31.7 80 -3.2 26.3
22:40 1025 30.27 854 25.22 -0.1 31.9 80 -3.2 26.3
22:45 1025 30.27 854 25.22 -0.1 31.9 78 -3.4 25.9
22:50 1025 30.27 854 25.22 -0 31.9 78 -3.4 25.9
22:55 1025 30.27 854 25.22 -0 32 78 -3.5 25.7
23:00 1025 30.27 854 25.22 0 32 78 -3.3 26
23:05 1025 30.27 854 25.22 -0 31.9 79 -3.2 26.3
23:10 1025 30.27 854 25.22 -0 31.9 79 -3.3 26
23:15 1025 30.27 854 25.22 -0.1 31.8 82 -2.9 26.8
23:20 1025 30.27 854 25.22 -0.3 31.5 83 -2.8 26.9
23:25 1025 30.27 854 25.22 -0.4 31.3 82 -3 26.6
23:30 1025 30.27 854 25.22 -0.4 31.4 82 -3 26.5
23:35 1025 30.27 854 25.22 -0.4 31.4 82 -3.1 26.4
23:40 1025 30.27 854 25.22 -0.4 31.3 82 -3.1 26.4
23:45 1025 30.27 854 25.22 -0.3 31.4 81 -3.2 26.2
23:50 1025 30.27 854 25.22 -0.2 31.6 80 -3.3 26
23:55 1025 30.27 854 25.22 -0.2 31.6 79 -3.4 25.9
24:00 1025 30.27 854 25.22 -0.2 31.6 80 -3.3 26.1